Aviation Digital Data Service (ADDS)

Output produced by METARs form (0741 UTC 24 October 2014)
found at http://aviationweather.gov/adds/metars/
 
KLFT 240653Z AUTO 03003KT 10SM CLR 12/11 A3010 RMK AO2 SLP193 T01170106